Time;durP1;ratioP1;P1;durP2;ratioP2;P2;SDS_P1;SDS_P2;PMS_P1;PMS_P2;Temp;Humidity;BMP_temperature;BMP_pressure;BME280_temperature;BME280_humidity;BME280_pressure;Samples;Min_cycle;Max_cycle;Signal;HPM_P1;HPM_P2
2023/04/01 00:00:57;;;;;;;6.13;4.60;;;;;;;;;;4847747;29;20064;-89
2023/04/01 00:03:24;;;;;;;5.68;4.57;;;;;;;;;;4862723;29;20060;-88
2023/04/01 00:05:50;;;;;;;5.97;5.28;;;;;;;;;;4847782;29;20105;-88
2023/04/01 00:08:17;;;;;;;7.20;5.57;;;;;;;;;;4832424;29;20534;-88
2023/04/01 00:10:43;;;;;;;6.93;5.47;;;;;;;;;;4847436;29;20051;-89
2023/04/01 00:13:09;;;;;;;8.00;5.32;;;;;;;;;;4847433;29;20064;-89
2023/04/01 00:15:36;;;;;;;7.07;4.97;;;;;;;;;;4862525;29;20096;-89
2023/04/01 00:18:02;;;;;;;7.03;5.35;;;;;;;;;;4847609;29;20105;-89
2023/04/01 00:20:28;;;;;;;6.93;4.88;;;;;;;;;;4848035;29;20103;-89
2023/04/01 00:22:54;;;;;;;7.38;5.28;;;;;;;;;;4832240;29;20055;-89
2023/04/01 00:25:21;;;;;;;8.05;5.28;;;;;;;;;;4847143;29;20068;-89
2023/04/01 00:27:47;;;;;;;6.72;5.00;;;;;;;;;;4847316;29;20510;-88
2023/04/01 00:30:13;;;;;;;7.60;5.57;;;;;;;;;;4847427;29;20053;-88
2023/04/01 00:32:39;;;;;;;6.07;4.72;;;;;;;;;;4831950;29;20089;-88
2023/04/01 00:35:05;;;;;;;5.72;5.13;;;;;;;;;;4862624;29;20148;-89
2023/04/01 00:37:35;;;;;;;7.25;5.47;;;;;;;;;;4847022;29;20093;-89
2023/04/01 00:40:01;;;;;;;10.77;5.47;;;;;;;;;;4831731;29;20057;-89
2023/04/01 00:42:28;;;;;;;8.32;5.68;;;;;;;;;;4847001;29;20092;-89
2023/04/01 00:44:55;;;;;;;11.13;6.10;;;;;;;;;;4847022;29;20056;-88
2023/04/01 00:47:21;;;;;;;9.38;6.28;;;;;;;;;;4847071;29;20092;-88
2023/04/01 00:49:50;;;;;;;6.03;5.38;;;;;;;;;;4846939;29;20506;-89
2023/04/01 00:52:19;;;;;;;7.78;5.65;;;;;;;;;;4848197;29;20046;-88
2023/04/01 00:54:48;;;;;;;7.22;5.65;;;;;;;;;;4854330;29;20049;-89
2023/04/01 00:57:40;;;;;;;9.80;6.35;;;;;;;;;;4849756;29;20049;-88
2023/04/01 01:00:09;;;;;;;8.02;5.53;;;;;;;;;;4847596;29;20060;-88
2023/04/01 01:02:35;;;;;;;7.20;5.80;;;;;;;;;;4866371;29;20145;-90
2023/04/01 01:05:05;;;;;;;8.05;6.00;;;;;;;;;;4851132;29;20053;-89
2023/04/01 01:07:39;;;;;;;8.15;6.85;;;;;;;;;;4835812;29;20049;-88
2023/04/01 01:10:12;;;;;;;11.80;6.32;;;;;;;;;;4882658;29;20056;-89
2023/04/01 01:12:44;;;;;;;8.63;6.25;;;;;;;;;;4849866;29;20049;-88
2023/04/01 01:15:10;;;;;;;7.22;5.78;;;;;;;;;;4865407;29;20541;-88
2023/04/01 01:17:39;;;;;;;6.95;5.47;;;;;;;;;;4850411;29;20447;-88
2023/04/01 01:20:31;;;;;;;8.13;6.10;;;;;;;;;;4865285;29;20096;-90
2023/04/01 01:23:07;;;;;;;7.38;5.93;;;;;;;;;;4815826;29;20068;-88
2023/04/01 01:26:07;;;;;;;6.72;5.60;;;10.00;99.90;;;;;;4881547;29;20061;-88
2023/04/01 01:28:39;;;;;;;6.80;5.45;;;;;;;;;;4850547;29;20048;-88
2023/04/01 01:31:08;;;;;;;7.97;5.50;;;;;;;;;;4882059;29;20414;-88
2023/04/01 01:33:46;;;;;;;9.30;5.82;;;;;;;;;;4865486;29;20045;-88
2023/04/01 01:36:14;;;;;;;7.68;5.95;;;;;;;;;;4865266;29;20068;-88
2023/04/01 01:38:41;;;;;;;6.18;5.13;;;;;;;;;;4849573;29;20053;-87
2023/04/01 01:41:09;;;;;;;6.15;5.32;;;;;;;;;;4849638;29;20061;-87
2023/04/01 01:43:41;;;;;;;9.10;6.05;;;;;;;;;;4864766;29;20084;-88
2023/04/01 01:46:10;;;;;;;10.70;6.25;;;;;;;;;;4849727;29;20380;-88
2023/04/01 01:48:40;;;;;;;6.65;5.95;;;;;;;;;;4849908;29;20064;-89
2023/04/01 01:51:06;;;;;;;7.45;5.93;;;;;;;;;;4849239;29;20131;-88
2023/04/01 01:53:32;;;;;;;8.85;6.43;;;;;;;;;;4850040;29;20057;-92
2023/04/01 01:55:59;;;;;;;7.78;6.20;;;;;;;;;;4849328;29;20056;-89
2023/04/01 01:58:34;;;;;;;9.77;6.63;;;;;;;;;;4850197;29;20380;-94
2023/04/01 02:01:01;;;;;;;7.95;6.60;;;;;;;;;;4865151;29;20136;-93
2023/04/01 02:03:28;;;;;;;8.60;6.40;;;;;;;;;;4865108;29;20069;-94
2023/04/01 02:05:56;;;;;;;8.90;6.72;;;;;;;;;;4849615;29;20057;-88
2023/04/01 02:08:28;;;;;;;9.73;6.80;;;;;;;;;;4849194;29;20104;-90
2023/04/01 02:10:57;;;;;;;8.45;6.22;;;;;;;;;;4849493;29;20529;-90
2023/04/01 02:13:26;;;;;;;9.13;6.63;;;;;;;;;;4864550;29;20075;-89
2023/04/01 02:15:56;;;;;;;9.93;6.88;;;;;;;;;;4849438;29;20053;-89
2023/04/01 02:18:22;;;;;;;8.77;6.38;;;;;;;;;;4864756;29;20391;-89
2023/04/01 02:20:49;;;;;;;7.90;6.53;;;;;;;;;;4849729;29;20103;-88
2023/04/01 02:23:16;;;;;;;8.27;6.65;;;;;;;;;;4881318;29;20049;-88
2023/04/01 02:25:44;;;;;;;8.95;6.45;;;;;;;;;;4848923;29;20053;-88
2023/04/01 02:28:11;;;;;;;10.40;8.13;;;;;;;;;;4881167;29;20124;-88
2023/04/01 02:30:39;;;;;;;9.75;6.82;;;;;;;;;;4848838;29;20049;-89
2023/04/01 02:33:06;;;;;;;8.65;7.15;;;;;;;;;;4849107;29;20068;-89
2023/04/01 02:35:34;;;;;;;9.18;7.47;;;;;;;;;;4848908;29;20418;-91
2023/04/01 02:38:03;;;;;;;8.55;7.22;;;;;;;;;;4864454;29;20107;-88
2023/04/01 02:40:30;;;;;;;12.85;6.90;;;;;;;;;;4833926;29;20053;-88
2023/04/01 02:42:56;;;;;;;8.50;7.40;;;;;;;;;;4864035;29;20052;-88
2023/04/01 02:45:22;;;;;;;10.93;6.88;;;;;;;;;;4833779;29;20409;-88
2023/04/01 02:47:48;;;;;;;8.90;7.50;;;;;;;;;;4863963;29;20084;-94
2023/04/01 02:50:14;;;;;;;9.93;7.57;;;;;;;;;;4864319;29;20398;-88
2023/04/01 02:52:40;;;;;;;10.00;7.45;;;;;;;;;;4833204;29;20143;-89
2023/04/01 02:55:06;;;;;;;9.13;6.68;;;;;;;;;;4833291;29;20140;-88
2023/04/01 02:57:32;;;;;;;11.85;7.30;;;;;;;;;;4863994;29;20052;-89
2023/04/01 02:59:59;;;;;;;9.73;6.95;;;;;;;;;;4833402;29;20061;-89
2023/04/01 03:02:25;;;;;;;9.77;7.15;;;;;;;;;;4848100;29;20056;-88
2023/04/01 03:04:51;;;;;;;9.73;7.50;;;;;;;;;;4863478;29;20104;-88
2023/04/01 03:07:17;;;;;;;9.65;7.20;;;;;;;;;;4863966;29;20092;-88
2023/04/01 03:09:43;;;;;;;8.57;6.70;;;;;;;;;;4848101;29;20052;-88
2023/04/01 03:12:09;;;;;;;9.90;7.47;;;;;;;;;;4833080;29;20486;-88
2023/04/01 03:14:35;;;;;;;11.50;6.78;;;;;;;;;;4863241;29;20049;-87
2023/04/01 03:17:05;;;;;;;10.70;7.63;;;;;;;;;;4832718;29;20056;-88
2023/04/01 03:19:31;;;;;;;9.68;7.63;;;;;;;;;;4848125;29;20068;-88
2023/04/01 03:21:57;;;;;;;11.20;7.00;;;;;;;;;;4832682;29;20388;-88
2023/04/01 03:24:23;;;;;;;10.77;7.57;;;;;;;;;;4848673;29;20061;-88
2023/04/01 03:26:49;;;;;;;12.65;9.02;;;;;;;;;;4863241;29;20053;-88
2023/04/01 03:29:16;;;;;;;11.35;7.65;;;;;;;;;;4847863;29;20084;-88
2023/04/01 03:31:42;;;;;;;11.05;7.57;;;;;;;;;;4847562;29;20550;-88
2023/04/01 03:34:08;;;;;;;11.10;8.10;;;;;;;;;;4863103;29;20053;-88
2023/04/01 03:36:34;;;;;;;12.80;8.05;;;;;;;;;;4863206;29;20053;-88
2023/04/01 03:39:00;;;;;;;12.30;8.82;;;;;;;;;;4832568;29;20116;-88
2023/04/01 03:41:26;;;;;;;10.25;7.70;;;;;;;;;;4847412;29;20052;-88
2023/04/01 03:43:54;;;;;;;9.48;7.57;;;;;;;;;;4847517;29;20064;-88
2023/04/01 03:46:21;;;;;;;10.15;7.82;;;;;;;;;;4847611;29;20119;-88
2023/04/01 03:48:47;;;;;;;14.85;9.25;;;;;;;;;;4847329;29;20064;-88
2023/04/01 03:51:13;;;;;;;12.35;8.93;;;;;;;;;;4862672;29;20049;-89
2023/04/01 03:53:39;;;;;;;16.02;8.65;;;;;;;;;;4848441;29;20056;-88
2023/04/01 03:56:06;;;;;;;10.93;8.25;;;;;;;;;;4848746;29;20061;-88
2023/04/01 03:58:32;;;;;;;12.02;8.82;;;;;;;;;;4847529;29;20057;-88
2023/04/01 04:00:58;;;;;;;13.55;9.68;;;;;;;;;;4865567;29;20116;-87
2023/04/01 04:03:24;;;;;;;13.50;8.65;;;;;;;;;;4866556;29;20434;-89
2023/04/01 04:05:50;;;;;;;13.35;9.52;;;;;;;;;;4848079;29;20463;-88
2023/04/01 04:08:16;;;;;;;18.95;9.88;;;;;;;;;;4847159;29;20140;-89
2023/04/01 04:10:43;;;;;;;14.10;10.00;;;;;;;;;;4862883;29;20075;-88
2023/04/01 04:13:09;;;;;;;12.55;9.05;;;;;;;;;;4847232;29;20059;-88
2023/04/01 04:15:35;;;;;;;15.10;9.75;;;;;;;;;;4847110;29;20053;-88
2023/04/01 04:18:01;;;;;;;12.82;9.73;;;;;;;;;;4862568;29;20053;-88
2023/04/01 04:20:27;;;;;;;14.82;9.38;;;;;;;;;;4847259;29;20057;-90
2023/04/01 04:22:53;;;;;;;13.32;9.55;;;;;;;;;;4862982;29;20063;-88
2023/04/01 04:25:19;;;;;;;19.35;10.18;;;;;;;;;;4847201;29;20104;-88
2023/04/01 04:27:45;;;;;;;18.75;10.57;;;;;;;;;;4862403;29;20491;-88
2023/04/01 04:30:11;;;;;;;16.30;10.88;;;;;;;;;;4847309;29;20052;-88
2023/04/01 04:32:37;;;;;;;19.30;10.45;;;;;;;;;;4864211;29;20064;-88
2023/04/01 04:35:04;;;;;;;15.85;10.15;;;;;;;;;;4851270;29;20136;-88
2023/04/01 04:37:30;;;;;;;16.67;11.15;;;;;;;;;;4865858;29;20060;-88
2023/04/01 04:39:56;;;;;;;17.67;11.07;;;;;;;;;;4850565;29;20057;-94
2023/04/01 04:42:25;;;;;;;15.05;9.80;;;;;;;;;;4866946;29;20055;-89
2023/04/01 04:44:51;;;;;;;19.77;10.93;;;;;;;;;;4868164;29;20121;-91
2023/04/01 04:47:17;;;;;;;13.13;10.07;;;;;;;;;;4867296;29;20121;-88
2023/04/01 04:49:43;;;;;;;16.58;11.13;;;;;;;;;;4851329;29;20052;-88
2023/04/01 04:52:10;;;;;;;16.25;10.73;;;;;;;;;;4883244;29;20161;-88
2023/04/01 04:54:39;;;;;;;14.75;10.80;;;;;;;;;;4850827;29;20060;-88
2023/04/01 04:57:06;;;;;;;16.98;10.38;;;;;;;;;;4851367;29;20568;-88
2023/04/01 04:59:40;;;;;;;16.20;11.18;;;;;;;;;;4853288;29;20044;-88
2023/04/01 05:02:07;;;;;;;16.90;11.63;;;;;;;;;;4851326;29;20486;-88
2023/04/01 05:04:36;;;;;;;18.02;11.32;;;;;;;;;;4866745;29;20045;-89
2023/04/01 05:07:03;;;;;;;19.40;11.68;;;;;;;;;;4852169;29;20053;-87
2023/04/01 05:09:29;;;;;;;18.38;12.43;;;;;;;;;;4866227;29;20052;-88
2023/04/01 05:11:55;;;;;;;16.88;11.80;;;;;;;;;;4865944;29;20049;-88
2023/04/01 05:14:21;;;;;;;20.67;12.48;;;;;;;;;;4851573;29;20402;-88
2023/04/01 05:16:49;;;;;;;17.23;11.25;;;;;;;;;;4866274;29;20061;-87
2023/04/01 05:19:15;;;;;;;17.67;12.98;;;;;;;;;;4866523;29;20049;-88
2023/04/01 05:21:41;;;;;;;15.70;11.05;;;;;;;;;;4850988;29;20060;-88
2023/04/01 05:24:09;;;;;;;18.65;11.85;;;;;;;;;;4865212;29;20061;-88
2023/04/01 05:26:36;;;;;;;16.83;11.63;;;;;;;;;;4850393;29;20140;-88
2023/04/01 05:29:03;;;;;;;19.02;11.85;;;;;;;;;;4850090;29;20053;-88
2023/04/01 05:31:29;;;;;;;18.85;12.90;;;;;;;;;;4850004;29;20102;-88
2023/04/01 05:33:58;;;;;;;16.23;11.23;;;;;;;;;;4850584;29;20135;-87
2023/04/01 05:36:24;;;;;;;17.70;11.93;;;;;;;;;;4850086;29;20060;-88
2023/04/01 05:38:50;;;;;;;16.70;11.82;;;;;;;;;;4850339;29;20402;-87
2023/04/01 05:41:16;;;;;;;17.88;12.88;;;;;;;;;;4849997;29;20049;-88
2023/04/01 05:43:43;;;;;;;17.95;12.07;;;;;;;;;;4864085;29;20081;-88
2023/04/01 05:46:09;;;;;;;21.27;12.23;;;;;;;;;;4849515;29;20113;-87
2023/04/01 05:48:35;;;;;;;15.13;10.88;;;;;;;;;;4849753;29;20059;-87
2023/04/01 05:51:05;;;;;;;20.45;12.73;;;;;;;;;;4865341;29;20089;-87
2023/04/01 05:53:34;;;;;;;19.10;13.02;;;;;;;;;;4865581;29;20045;-88
2023/04/01 05:56:04;;;;;;;21.27;13.20;;;;;;;;;;4865669;29;20451;-88
2023/04/01 05:58:32;;;;;;;17.25;12.02;;;;;;;;;;4849688;29;20053;-88
2023/04/01 06:01:03;;;;;;;19.08;12.57;;;;;;;;;;4848943;29;20068;-87
2023/04/01 06:03:29;;;;;;;20.25;12.60;;;;;;;;;;4881303;29;20132;-87
2023/04/01 06:05:55;;;;;;;17.45;11.70;;;;;;;;;;4849662;29;20052;-88
2023/04/01 06:08:21;;;;;;;18.55;11.90;;;;;;;;;;4849890;29;20053;-88
2023/04/01 06:10:50;;;;;;;16.38;12.23;;;;;;;;;;4849328;29;20495;-88
2023/04/01 06:13:40;;;;;;;18.45;11.60;;;;;;;;;;4864428;29;20491;-87
2023/04/01 06:16:11;;;;;;;18.30;10.73;;;;;;;;;;4856908;29;20069;-87
2023/04/01 06:18:52;;;;;;;17.15;11.48;;;;;;;;;;4849933;29;20135;-87
2023/04/01 06:21:18;;;;;;;17.15;11.52;;;;;;;;;;4864818;29;20056;-87
2023/04/01 06:23:47;;;;;;;15.30;11.43;;;;;;;;;;4849251;29;20072;-87
2023/04/01 06:26:37;;;;;;;16.70;11.10;;;;;;;;;;4848610;29;20083;-87
2023/04/01 06:29:03;;;;;;;16.73;11.15;;;;;;;;;;4857077;29;20053;-88
2023/04/01 06:31:55;;;;;;;15.60;10.98;;;;;;;;;;4864779;29;20043;-87
2023/04/01 06:34:33;;;;;;;16.50;10.50;;;;;;;;;;4848557;29;20636;-87
2023/04/01 06:37:21;;;;;;;19.85;11.55;;;;;;;;;;4849265;29;20068;-87
2023/04/01 06:39:50;;;;;;;17.88;10.82;;;;;;;;;;4849116;29;20416;-87
2023/04/01 06:42:16;;;;;;;16.33;11.23;;;;;;;;;;4864052;29;20057;-87
2023/04/01 06:45:04;;;;;;;16.33;11.15;;;;;;;;;;4849412;29;20052;-87
2023/04/01 06:47:49;;;;;;;15.93;11.15;;;;;;;;;;4864791;29;20049;-92
2023/04/01 06:50:18;;;;;;;18.42;11.13;;;;;;;;;;4849369;29;20049;-93
2023/04/01 06:52:56;;;;;;;20.58;12.52;;;;;;;;;;4848763;29;20067;-89
2023/04/01 06:55:41;;;;;;;17.48;12.00;;;;;;;;;;4848845;29;20104;-88
2023/04/01 06:58:19;;;;;;;16.52;11.48;;;;;;;;;;4864530;29;20443;-89
2023/04/01 07:00:46;;;;;;;18.08;12.02;;;;;;;;;;4848905;29;20131;-88
2023/04/01 07:03:12;;;;;;;17.77;10.90;;;;;;;;;;4880892;29;20143;-91
2023/04/01 07:05:39;;;;;;;16.38;11.50;;;;;;;;;;4864135;29;20109;-88
2023/04/01 07:08:09;;;;;;;17.10;11.57;;;;;;;;;;4849153;29;20155;-89
2023/04/01 07:10:38;;;;;;;17.50;12.40;;;;;;;;;;4848601;29;20045;-90
2023/04/01 07:13:13;;;;;;;16.90;10.90;;;;;;;;;;4880493;29;20467;-88
2023/04/01 07:15:41;;;;;;;18.80;12.35;;;;;;;;;;4848683;29;20088;-88
2023/04/01 07:18:16;;;;;;;18.45;11.48;;;;;;;;;;4848230;29;20092;-90
2023/04/01 07:20:42;;;;;;;18.35;11.65;;;;;;;;;;4848642;29;20489;-89
2023/04/01 07:23:29;;;;;;;22.25;12.77;;;;;;;;;;4880138;29;20100;-89
2023/04/01 07:26:11;;;;;;;17.15;12.00;;;;;;;;;;4863361;29;20406;-92
2023/04/01 07:28:40;;;;;;;16.13;11.63;;;;;;;;;;4864264;29;20063;-88
2023/04/01 07:31:09;;;;;;;19.90;13.32;;;;;;;;;;4848643;29;20057;-90
2023/04/01 07:33:49;;;;;;;19.67;12.18;;;;;;;;;;4848416;29;20061;-92
2023/04/01 07:36:15;;;;;;;20.42;12.88;;;;;;;;;;4848732;29;20092;-88
2023/04/01 07:38:41;;;;;;;16.90;12.77;;;;;;;;;;4848576;29;20078;-88
2023/04/01 07:41:16;;;;;;;18.27;12.43;;;;;;;;;;4848626;29;20048;-89
2023/04/01 07:43:54;;;;;;;18.85;12.27;;;;;;;;;;4880140;29;20052;-88
2023/04/01 07:46:43;;;;;;;15.27;11.20;;;;;;;;;;4879896;29;20498;-89
2023/04/01 07:49:32;;;;;;;19.88;13.07;;;;;;;;;;4848198;29;20495;-89
2023/04/01 07:52:24;;;;;;;17.90;12.80;;;;;;;;;;4822534;29;20168;-89
2023/04/01 07:54:54;;;;;;;16.02;11.55;;;;;;;;;;4848156;29;20049;-91
2023/04/01 07:57:23;;;;;;;17.95;12.07;;;;;;;;;;4880325;29;20060;-89
2023/04/01 07:59:52;;;;;;;16.20;11.48;;;;;;;;;;4848271;29;20057;-89
2023/04/01 08:02:21;;;;;;;15.55;10.40;;;;;;;;;;4863462;29;20063;-90
2023/04/01 08:05:06;;;;;;;16.98;11.95;;;;;;;;;;4847595;29;20144;-90
2023/04/01 08:07:32;;;;;;;17.30;11.40;;;;;;;;;;4849272;29;20463;-90
2023/04/01 08:10:23;;;;;;;15.57;10.85;;;10.90;99.90;;;;;;4883383;29;20073;-89
2023/04/01 08:12:49;;;;;;;14.93;11.20;;;;;;;;;;4867324;29;20452;-89
2023/04/01 08:15:15;;;;;;;13.68;10.20;;;;;;;;;;4867839;29;20491;-90
2023/04/01 08:17:54;;;;;;;17.50;11.18;;;;;;;;;;4851932;29;20057;-90
2023/04/01 08:20:35;;;;;;;13.43;9.73;;;;;;;;;;4866868;29;20439;-88
2023/04/01 08:23:04;;;;;;;13.02;9.43;;;;;;;;;;4868749;29;20487;-88
2023/04/01 08:25:32;;;;;;;17.02;11.75;;;;;;;;;;4870934;29;20105;-88
2023/04/01 08:28:07;;;;;;;12.27;9.18;;;;;;;;;;4852297;29;20057;-89
2023/04/01 08:30:37;;;;;;;13.88;9.57;;;;;;;;;;4883696;29;20438;-90
2023/04/01 08:33:06;;;;;;;14.23;9.43;;;;;;;;;;4866746;29;20057;-89
2023/04/01 08:35:40;;;;;;;12.55;9.55;;;;;;;;;;4867099;29;20407;-89
2023/04/01 08:38:26;;;;;;;14.07;9.90;;;;;;;;;;4851421;29;20488;-88
2023/04/01 08:41:06;;;;;;;18.90;10.10;;;;;;;;;;4867298;29;20057;-88
2023/04/01 08:43:52;;;;;;;14.20;10.45;;;;;;;;;;4851560;29;20053;-89
2023/04/01 08:46:18;;;;;;;12.82;9.27;;;;;;;;;;4838536;29;20068;-89
2023/04/01 08:49:03;;;;;;;15.05;9.63;;;;;;;;;;4866479;29;20140;-92
2023/04/01 08:51:35;;;;;;;14.32;9.95;;;;;;;;;;4866625;29;20204;-90
2023/04/01 08:54:29;;;;;;;6.13;4.63;;;;;;;;;;4851008;29;20147;-89
2023/04/01 08:56:58;;;;;;;11.88;4.78;;;;;;;;;;4863204;29;20061;-89
2023/04/01 08:59:38;;;;;;;9.25;5.45;;;;;;;;;;4851609;29;20041;-90
2023/04/01 09:02:46;;;;;;;6.80;5.43;;;11.20;99.90;;;;;;4850708;29;20057;-88
2023/04/01 09:05:25;;;;;;;6.55;5.50;;;;;;;;;;4850707;29;20061;-90
2023/04/01 09:07:59;;;;;;;5.78;4.97;;;;;;;;;;4866617;29;20067;-90
2023/04/01 09:10:44;;;;;;;6.28;5.63;;;;;;;;;;4866058;29;20049;-91
2023/04/01 09:13:11;;;;;;;5.63;4.50;;;;;;;;;;4866814;29;20053;-87
2023/04/01 09:15:42;;;;;;;6.72;5.18;;;;;;;;;;4850685;29;20089;-89
2023/04/01 09:18:08;;;;;;;6.07;5.00;;;;;;;;;;4850380;29;20135;-91
2023/04/01 09:20:53;;;;;;;6.25;4.82;;;;;;;;;;4882187;29;20571;-89
2023/04/01 09:23:28;;;;;;;5.57;4.55;;;;;;;;;;4865715;29;20056;-89
2023/04/01 09:26:12;;;;;;;7.40;5.20;;;;;;;;;;4850308;29;20109;-89
2023/04/01 09:28:45;;;;;;;4.93;4.25;;;;;;;;;;4850334;29;20053;-89
2023/04/01 09:31:22;;;;;;;5.60;4.80;;;;;;;;;;4850440;29;20061;-89
2023/04/01 09:33:57;;;;;;;4.43;3.80;;;;;;;;;;4850252;29;20490;-88
2023/04/01 09:36:44;;;;;;;5.97;4.20;;;;;;;;;;4866137;29;21222;-89
2023/04/01 09:39:29;;;;;;;6.10;4.30;;;;;;;;;;4850421;29;20053;-91
2023/04/01 09:42:02;;;;;;;4.30;2.90;;;;;;;;;;4865838;29;20057;-88
2023/04/01 09:44:28;;;;;;;4.00;3.50;;;;;;;;;;4865252;29;20057;-89
2023/04/01 09:47:00;;;;;;;3.58;3.10;;;;;;;;;;4849851;29;20045;-89
2023/04/01 09:50:05;;;;;;;5.30;4.03;;;;;;;;;;4850171;29;20053;-89
2023/04/01 09:52:53;;;;;;;3.60;3.05;;;;;;;;;;4773738;30;20138;-89
2023/04/01 09:55:29;;;;;;;4.07;3.53;;;;;;;;;;4758457;30;20059;-90
2023/04/01 09:57:55;;;;;;;5.55;2.90;;;;;;;;;;4822281;29;20049;-89
2023/04/01 10:00:33;;;;;;;4.57;3.72;;;;;;;;;;4850504;29;20113;-90
2023/04/01 10:03:03;;;;;;;3.40;2.70;;;;;;;;;;4882206;29;20057;-90
2023/04/01 10:05:45;;;;;;;4.15;2.47;;;;;;;;;;4850486;29;20064;-89
2023/04/01 10:08:12;;;;;;;3.25;2.95;;;;;;;;;;4865589;29;20057;-89
2023/04/01 10:10:44;;;;;;;6.13;3.38;;;;;;;;;;4850113;29;20056;-90
2023/04/01 10:13:29;;;;;;;4.00;2.55;;;;;;;;;;4849072;29;20053;-89
2023/04/01 10:15:58;;;;;;;5.45;2.97;;;;;;;;;;4849584;29;20049;-89
2023/04/01 10:18:36;;;;;;;2.88;2.58;;;;;;;;;;4864934;29;20204;-90
2023/04/01 10:21:17;;;;;;;3.80;2.90;;;;;;;;;;4849206;29;20044;-91
2023/04/01 10:24:02;;;;;;;3.28;2.90;;;;;;;;;;4849111;29;20056;-90
2023/04/01 10:26:35;;;;;;;2.70;2.50;;;;;;;;;;4865214;29;20076;-89
2023/04/01 10:29:36;;;;;;;3.45;3.15;;;;;;;;;;4864724;29;20048;-89
2023/04/01 10:32:13;;;;;;;2.38;2.17;;;;;;;;;;4781481;30;20070;-89
2023/04/01 10:34:56;;;;;;;4.72;2.63;;;;;;;;;;4872120;29;20057;-88
2023/04/01 10:37:41;;;;;;;6.13;2.88;;;;;;;;;;4852705;29;20414;-89
2023/04/01 10:40:22;;;;;;;4.50;2.83;;;;;;;;;;4849499;29;20516;-89
2023/04/01 10:43:02;;;;;;;2.90;2.53;;;;;;;;;;4849027;29;20053;-89
2023/04/01 10:45:48;;;;;;;2.47;2.28;;;;;;;;;;4850190;29;20093;-89
2023/04/01 10:48:18;;;;;;;3.88;2.58;;;;;;;;;;4866357;29;20045;-89
2023/04/01 10:50:44;;;;;;;2.05;1.95;;;;;;;;;;4851978;29;20197;-89
2023/04/01 10:53:22;;;;;;;3.38;2.50;;;;;;;;;;4882447;29;20057;-90
2023/04/01 10:56:07;;;;;;;2.40;2.20;;;;;;;;;;4865958;29;20193;-89
2023/04/01 10:58:40;;;;;;;3.40;2.40;;;;;;;;;;4851045;29;20068;-89
2023/04/01 11:01:10;;;;;;;2.30;2.10;;;;;;;;;;4850291;29;20053;-89
2023/04/01 11:03:42;;;;;;;2.13;1.95;;;;;;;;;;4882423;29;20053;-89
2023/04/01 11:06:24;;;;;;;3.17;1.92;;;;;;;;;;4850146;29;20057;-89
2023/04/01 11:08:59;;;;;;;2.67;1.90;;;;;;;;;;4850021;29;20045;-89
2023/04/01 11:11:43;;;;;;;2.67;2.20;;;;;;;;;;4849997;29;20057;-90
2023/04/01 11:14:19;;;;;;;7.65;1.95;;;;;;;;;;4850309;29;20053;-90
2023/04/01 11:17:04;;;;;;;3.63;2.28;;;;;;;;;;4849894;29;20053;-90
2023/04/01 11:19:42;;;;;;;3.47;2.05;;;;;;;;;;4849957;29;20049;-90
2023/04/01 11:22:34;;;;;;;5.78;2.05;;;;;;;;;;4849476;29;20080;-90
2023/04/01 11:25:02;;;;;;;4.63;1.85;;;;;;;;;;4849493;29;20053;-90
2023/04/01 11:27:47;;;;;;;3.35;2.00;;;;;;;;;;4849992;29;20158;-90
2023/04/01 11:30:14;;;;;;;2.47;2.28;;;;;;;;;;4849699;29;20057;-90
2023/04/01 11:32:44;;;;;;;2.40;2.20;;;;;;;;;;4849328;29;20064;-90
2023/04/01 11:35:16;;;;;;;2.50;2.20;;;;;;;;;;4849090;29;20057;-90
2023/04/01 11:37:45;;;;;;;2.00;1.80;;;;;;;;;;4864546;29;20065;-90
2023/04/01 11:40:18;;;;;;;3.00;1.83;;;;;;;;;;4880811;29;20196;-89
2023/04/01 11:43:03;;;;;;;2.83;2.00;;;;;;;;;;4863061;29;20063;-89
2023/04/01 11:45:38;;;;;;;4.10;2.03;;;;;;;;;;4864642;29;20052;-90
2023/04/01 11:48:13;;;;;;;3.17;2.38;;;;;;;;;;4864977;29;20052;-90
2023/04/01 11:50:58;;;;;;;3.17;2.60;;;;;;;;;;4848958;29;20063;-91
2023/04/01 11:53:33;;;;;;;4.32;2.60;;;;;;;;;;4847997;29;20053;-90
2023/04/01 11:56:18;;;;;;;2.90;2.42;;;;;;;;;;4862732;29;20072;-91
2023/04/01 11:59:00;;;;;;;2.33;2.08;;;;;;;;;;4862860;29;20080;-90
2023/04/01 12:01:29;;;;;;;3.28;2.35;;;;;;;;;;4847366;29;20053;-89
2023/04/01 12:03:55;;;;;;;3.63;2.10;;;;;;;;;;4863120;29;20076;-91
2023/04/01 12:06:30;;;;;;;2.50;2.13;;;;;;;;;;4847784;29;20140;-91
2023/04/01 12:09:12;;;;;;;3.50;2.00;;;;;;;;;;4847321;29;20466;-90
2023/04/01 12:11:45;;;;;;;2.40;2.20;;;;;;;;;;4847427;29;20137;-89
2023/04/01 12:14:16;;;;;;;3.90;2.25;;;;;;;;;;4847433;29;20060;-89
2023/04/01 12:16:49;;;;;;;2.58;2.30;;;;;;;;;;4862296;29;20511;-90
2023/04/01 12:19:30;;;;;;;2.88;2.22;;;;;;;;;;4862460;29;20053;-90
2023/04/01 12:22:18;;;;;;;2.33;2.13;;;9.90;99.90;;;;;;4847807;29;20057;-90
2023/04/01 12:24:48;;;;;;;2.35;1.75;;;;;;;;;;4847062;29;20097;-91
2023/04/01 12:27:23;;;;;;;4.43;2.08;;;;;;;;;;4863144;29;20057;-90
2023/04/01 12:30:20;;;;;;;2.17;1.98;;;9.90;99.90;;;;;;4847840;29;20149;-90
2023/04/01 12:33:04;;;;;;;2.50;2.00;;;;;;;;;;4846972;29;20510;-90
2023/04/01 12:35:48;;;;;;;;;;;10.00;99.90;;;;;;4847293;29;20060;-90
2023/04/01 12:38:24;;;;;;;1.90;1.75;;;;;;;;;;4847476;29;19930;-90
2023/04/01 12:41:13;;;;;;;2.70;1.92;;;;;;;;;;4847145;29;20049;-90
2023/04/01 12:44:06;;;;;;;2.60;1.90;;;;;;;;;;4846722;29;20144;-90
2023/04/01 12:46:41;;;;;;;2.85;2.47;;;;;;;;;;4879045;29;20498;-89
2023/04/01 12:49:26;;;;;;;4.10;2.25;;;;;;;;;;4862759;29;20064;-89
2023/04/01 12:52:12;;;;;;;2.97;2.42;;;;;;;;;;4862054;29;20092;-89
2023/04/01 12:54:57;;;;;;;2.00;1.80;;;;;;;;;;4850085;29;20064;-90
2023/04/01 12:57:23;;;;;;;2.10;2.00;;;;;;;;;;4866315;29;20138;-90
2023/04/01 12:59:52;;;;;;;3.72;1.58;;;;;;;;;;4850326;29;20060;-90
2023/04/01 13:02:24;;;;;;;2.78;2.05;;;;;;;;;;4866684;29;20423;-89
2023/04/01 13:04:53;;;;;;;2.20;2.03;;;;;;;;;;4850819;29;20140;-89
2023/04/01 13:07:34;;;;;;;2.72;2.40;;;;;;;;;;4850816;29;20056;-89
2023/04/01 13:10:03;;;;;;;;;;;10.00;99.90;;;;;;4850809;29;20109;-90
2023/04/01 13:12:35;;;;;;;2.45;2.17;;;;;;;;;;4850315;29;20293;-89
2023/04/01 13:15:15;;;;;;;3.50;2.72;;;;;;;;;;4864768;29;20056;-89
2023/04/01 13:17:54;;;;;;;2.97;2.50;;;;;;;;;;4849913;29;20510;-90
2023/04/01 13:20:20;;;;;;;2.58;2.33;;;;;;;;;;4865111;29;20053;-90
2023/04/01 13:23:01;;;;;;;2.22;1.95;;;;;;;;;;4849467;29;20056;-90
2023/04/01 13:25:35;;;;;;;1.65;1.55;;;;;;;;;;4849786;29;20088;-90
2023/04/01 13:28:05;;;;;;;2.03;1.75;;;;;;;;;;4850787;29;20049;-89
2023/04/01 13:30:37;;;;;;;3.53;1.88;;;;;;;;;;4865487;29;20053;-90
2023/04/01 13:33:29;;;;;;;3.60;1.90;;;;;;;;;;4865471;29;20085;-91
2023/04/01 13:36:25;;;;;;;1.65;1.55;;;10.10;99.90;;;;;;4849764;29;20113;-91
2023/04/01 13:39:09;;;;;;;1.60;1.50;;;10.00;99.90;;;;;;4865223;29;20503;-89
2023/04/01 13:41:53;;;;;;;1.85;1.67;;;;;;;;;;4849729;29;20053;-91
2023/04/01 13:44:19;;;;;;;2.17;1.98;;;;;;;;;;4864834;29;20061;-89
2023/04/01 13:46:52;;;;;;;1.83;1.73;;;;;;;;;;4849967;29;20057;-89
2023/04/01 13:49:27;;;;;;;2.88;2.67;;;;;;;;;;4850154;29;20061;-90
2023/04/01 13:51:57;;;;;;;1.70;1.60;;;;;;;;;;4849663;29;20053;-89
2023/04/01 13:54:26;;;;;;;1.88;1.73;;;;;;;;;;4849183;29;20711;-90
2023/04/01 13:57:04;;;;;;;1.95;1.80;;;;;;;;;;4865352;29;20055;-91
2023/04/01 13:59:39;;;;;;;2.10;2.00;;;;;;;;;;4866020;29;20053;-89
2023/04/01 14:02:25;;;;;;;3.25;1.80;;;;;;;;;;4850932;29;20392;-91
2023/04/01 14:05:28;;;;;;;2.20;1.73;;;9.70;99.90;;;;;;4864542;29;20053;-91
2023/04/01 14:08:15;;;;;;;1.40;1.30;;;;;;;;;;4849278;29;20053;-92
2023/04/01 14:10:45;;;;;;;1.60;1.40;;;;;;;;;;4848766;29;20109;-90
2023/04/01 14:13:11;;;;;;;1.83;1.70;;;;;;;;;;4849133;29;20057;-92
2023/04/01 14:15:38;;;;;;;1.42;1.33;;;;;;;;;;4848994;29;20064;-90
2023/04/01 14:18:10;;;;;;;1.75;1.52;;;;;;;;;;4881244;29;20053;-92
2023/04/01 14:21:00;;;;;;;2.20;1.63;;;;;;;;;;4848961;29;20053;-92
2023/04/01 14:23:33;;;;;;;1.67;1.55;;;;;;;;;;4837600;29;20052;-92
2023/04/01 14:26:05;;;;;;;1.92;1.75;;;;;;;;;;4849019;29;20068;-92
2023/04/01 14:28:45;;;;;;;2.63;1.35;;;;;;;;;;4849495;29;20068;-91
2023/04/01 14:31:29;;;;;;;3.28;2.17;;;;;;;;;;4849398;29;20068;-90
2023/04/01 14:33:55;;;;;;;2.47;1.52;;;;;;;;;;4848570;29;20085;-89
2023/04/01 14:36:21;;;;;;;1.52;1.42;;;;;;;;;;4864262;29;20502;-89
2023/04/01 14:38:53;;;;;;;2.13;1.50;;;;;;;;;;4849702;29;20048;-90
2023/04/01 14:41:45;;;;;;;2.25;2.15;;;;;;;;;;4863877;29;20057;-89
2023/04/01 14:44:33;;;;;;;2.20;1.48;;;9.50;99.90;;;;;;4848302;29;20105;-89
2023/04/01 14:47:14;;;;;;;1.60;1.50;;;;;;;;;;4849018;29;20095;-89
2023/04/01 14:49:46;;;;;;;2.10;1.90;;;;;;;;;;4848666;29;20057;-89
2023/04/01 14:52:22;;;;;;;5.32;1.80;;;;;;;;;;4848348;29;20415;-89
2023/04/01 14:54:49;;;;;;;1.70;1.60;;;;;;;;;;4848341;29;20053;-90
2023/04/01 14:57:29;;;;;;;2.35;1.83;;;;;;;;;;4864031;29;20088;-89
2023/04/01 14:59:58;;;;;;;2.50;1.83;;;;;;;;;;4863785;29;20057;-90
2023/04/01 15:02:34;;;;;;;3.80;1.55;;;;;;;;;;4848387;29;20064;-89
2023/04/01 15:05:03;;;;;;;3.83;2.05;;;;;;;;;;4863253;29;20387;-89